sensor_id;sensor_type;location;lat;lon;timestamp;P1;durP1;ratioP1;P2;durP2;ratioP2
53062;SDS011;40529;52.172;10.548;2022-12-07T00:02:10;41.42;;;21.35;;
53062;SDS011;40529;52.172;10.548;2022-12-07T00:04:37;48.78;;;22.55;;
53062;SDS011;40529;52.172;10.548;2022-12-07T00:07:03;46.72;;;22.83;;
53062;SDS011;40529;52.172;10.548;2022-12-07T00:09:29;49.13;;;23.42;;
53062;SDS011;40529;52.172;10.548;2022-12-07T00:11:55;45.60;;;22.63;;
53062;SDS011;40529;52.172;10.548;2022-12-07T00:14:21;46.90;;;23.20;;
53062;SDS011;40529;52.172;10.548;2022-12-07T00:16:48;45.85;;;21.88;;
53062;SDS011;40529;52.172;10.548;2022-12-07T00:19:14;46.72;;;23.15;;
53062;SDS011;40529;52.172;10.548;2022-12-07T00:21:41;45.45;;;23.27;;
53062;SDS011;40529;52.172;10.548;2022-12-07T00:24:07;44.95;;;22.10;;
53062;SDS011;40529;52.172;10.548;2022-12-07T00:26:34;47.28;;;22.30;;
53062;SDS011;40529;52.172;10.548;2022-12-07T00:29:02;46.15;;;23.17;;
53062;SDS011;40529;52.172;10.548;2022-12-07T00:31:30;44.42;;;21.58;;
53062;SDS011;40529;52.172;10.548;2022-12-07T00:33:58;36.30;;;17.80;;
53062;SDS011;40529;52.172;10.548;2022-12-07T00:36:25;48.47;;;24.25;;
53062;SDS011;40529;52.172;10.548;2022-12-07T00:38:51;50.70;;;24.08;;
53062;SDS011;40529;52.172;10.548;2022-12-07T00:41:18;50.33;;;24.20;;
53062;SDS011;40529;52.172;10.548;2022-12-07T00:43:45;52.63;;;24.65;;
53062;SDS011;40529;52.172;10.548;2022-12-07T00:46:12;51.40;;;23.73;;
53062;SDS011;40529;52.172;10.548;2022-12-07T00:48:38;48.58;;;24.23;;
53062;SDS011;40529;52.172;10.548;2022-12-07T00:51:04;55.50;;;24.80;;
53062;SDS011;40529;52.172;10.548;2022-12-07T00:53:31;54.38;;;25.38;;
53062;SDS011;40529;52.172;10.548;2022-12-07T00:56:04;58.05;;;26.23;;
53062;SDS011;40529;52.172;10.548;2022-12-07T00:58:30;57.17;;;25.50;;
53062;SDS011;40529;52.172;10.548;2022-12-07T01:00:56;56.97;;;26.10;;
53062;SDS011;40529;52.172;10.548;2022-12-07T01:03:25;59.50;;;27.05;;
53062;SDS011;40529;52.172;10.548;2022-12-07T01:05:51;62.70;;;26.77;;
53062;SDS011;40529;52.172;10.548;2022-12-07T01:08:18;60.20;;;27.27;;
53062;SDS011;40529;52.172;10.548;2022-12-07T01:10:44;61.72;;;26.58;;
53062;SDS011;40529;52.172;10.548;2022-12-07T01:13:10;63.42;;;26.90;;
53062;SDS011;40529;52.172;10.548;2022-12-07T01:15:40;64.28;;;28.63;;
53062;SDS011;40529;52.172;10.548;2022-12-07T01:18:06;64.63;;;27.88;;
53062;SDS011;40529;52.172;10.548;2022-12-07T01:20:32;70.55;;;28.55;;
53062;SDS011;40529;52.172;10.548;2022-12-07T01:22:58;65.07;;;28.02;;
53062;SDS011;40529;52.172;10.548;2022-12-07T01:25:24;65.90;;;27.95;;
53062;SDS011;40529;52.172;10.548;2022-12-07T01:27:50;64.10;;;27.73;;
53062;SDS011;40529;52.172;10.548;2022-12-07T01:30:16;70.80;;;29.00;;
53062;SDS011;40529;52.172;10.548;2022-12-07T01:32:42;62.42;;;27.38;;
53062;SDS011;40529;52.172;10.548;2022-12-07T01:35:08;61.35;;;28.52;;
53062;SDS011;40529;52.172;10.548;2022-12-07T01:37:38;63.13;;;27.30;;
53062;SDS011;40529;52.172;10.548;2022-12-07T01:40:04;48.05;;;20.90;;
53062;SDS011;40529;52.172;10.548;2022-12-07T01:42:31;58.83;;;26.13;;
53062;SDS011;40529;52.172;10.548;2022-12-07T01:47:43;61.03;;;25.60;;
53062;SDS011;40529;52.172;10.548;2022-12-07T01:50:09;56.47;;;25.27;;
53062;SDS011;40529;52.172;10.548;2022-12-07T01:52:35;55.80;;;25.23;;
53062;SDS011;40529;52.172;10.548;2022-12-07T01:55:03;55.45;;;25.63;;
53062;SDS011;40529;52.172;10.548;2022-12-07T01:57:30;52.72;;;23.40;;
53062;SDS011;40529;52.172;10.548;2022-12-07T01:59:57;51.35;;;23.88;;
53062;SDS011;40529;52.172;10.548;2022-12-07T02:02:31;48.95;;;23.60;;
53062;SDS011;40529;52.172;10.548;2022-12-07T02:04:58;54.78;;;25.30;;
53062;SDS011;40529;52.172;10.548;2022-12-07T02:07:25;54.10;;;24.73;;
53062;SDS011;40529;52.172;10.548;2022-12-07T02:09:52;53.80;;;24.75;;
53062;SDS011;40529;52.172;10.548;2022-12-07T02:12:18;49.80;;;24.63;;
53062;SDS011;40529;52.172;10.548;2022-12-07T02:14:45;51.20;;;24.50;;
53062;SDS011;40529;52.172;10.548;2022-12-07T02:17:15;52.53;;;24.83;;
53062;SDS011;40529;52.172;10.548;2022-12-07T02:20:06;50.25;;;23.58;;
53062;SDS011;40529;52.172;10.548;2022-12-07T02:28:07;49.80;;;23.92;;
53062;SDS011;40529;52.172;10.548;2022-12-07T02:30:40;46.85;;;23.73;;
53062;SDS011;40529;52.172;10.548;2022-12-07T02:40:39;53.70;;;25.55;;
53062;SDS011;40529;52.172;10.548;2022-12-07T02:46:09;54.25;;;24.77;;
53062;SDS011;40529;52.172;10.548;2022-12-07T02:48:36;56.78;;;25.55;;
53062;SDS011;40529;52.172;10.548;2022-12-07T02:51:03;61.28;;;26.52;;
53062;SDS011;40529;52.172;10.548;2022-12-07T02:53:30;59.63;;;27.48;;
53062;SDS011;40529;52.172;10.548;2022-12-07T02:55:57;56.85;;;27.15;;
53062;SDS011;40529;52.172;10.548;2022-12-07T02:58:36;62.63;;;27.77;;
53062;SDS011;40529;52.172;10.548;2022-12-07T03:03:41;52.92;;;25.50;;
53062;SDS011;40529;52.172;10.548;2022-12-07T03:06:16;58.45;;;25.67;;
53062;SDS011;40529;52.172;10.548;2022-12-07T03:12:14;56.60;;;24.90;;
53062;SDS011;40529;52.172;10.548;2022-12-07T03:14:24;55.22;;;25.60;;
53062;SDS011;40529;52.172;10.548;2022-12-07T03:16:53;53.38;;;24.20;;
53062;SDS011;40529;52.172;10.548;2022-12-07T03:19:23;55.50;;;24.92;;
53062;SDS011;40529;52.172;10.548;2022-12-07T03:21:55;54.42;;;26.70;;
53062;SDS011;40529;52.172;10.548;2022-12-07T03:24:24;52.47;;;24.80;;
53062;SDS011;40529;52.172;10.548;2022-12-07T03:26:52;55.45;;;25.40;;
53062;SDS011;40529;52.172;10.548;2022-12-07T03:29:24;52.35;;;25.00;;
53062;SDS011;40529;52.172;10.548;2022-12-07T03:31:55;57.00;;;26.27;;
53062;SDS011;40529;52.172;10.548;2022-12-07T03:34:31;55.83;;;25.75;;
53062;SDS011;40529;52.172;10.548;2022-12-07T03:37:12;58.90;;;25.50;;
53062;SDS011;40529;52.172;10.548;2022-12-07T03:39:44;54.10;;;25.92;;
53062;SDS011;40529;52.172;10.548;2022-12-07T03:42:11;55.47;;;26.13;;
53062;SDS011;40529;52.172;10.548;2022-12-07T03:44:38;55.38;;;25.27;;
53062;SDS011;40529;52.172;10.548;2022-12-07T03:49:53;53.40;;;24.75;;
53062;SDS011;40529;52.172;10.548;2022-12-07T03:52:52;49.80;;;25.48;;
53062;SDS011;40529;52.172;10.548;2022-12-07T03:57:42;51.08;;;23.40;;
53062;SDS011;40529;52.172;10.548;2022-12-07T04:00:09;45.03;;;22.58;;
53062;SDS011;40529;52.172;10.548;2022-12-07T04:02:35;50.42;;;23.73;;
53062;SDS011;40529;52.172;10.548;2022-12-07T04:05:02;44.47;;;23.15;;
53062;SDS011;40529;52.172;10.548;2022-12-07T04:07:28;45.70;;;23.10;;
53062;SDS011;40529;52.172;10.548;2022-12-07T04:09:54;45.90;;;21.85;;
53062;SDS011;40529;52.172;10.548;2022-12-07T04:12:21;44.10;;;22.73;;
53062;SDS011;40529;52.172;10.548;2022-12-07T04:14:47;42.33;;;20.95;;
53062;SDS011;40529;52.172;10.548;2022-12-07T04:17:13;38.00;;;20.05;;
53062;SDS011;40529;52.172;10.548;2022-12-07T04:19:39;37.53;;;19.38;;
53062;SDS011;40529;52.172;10.548;2022-12-07T04:22:05;36.63;;;20.50;;
53062;SDS011;40529;52.172;10.548;2022-12-07T04:24:31;36.40;;;19.63;;
53062;SDS011;40529;52.172;10.548;2022-12-07T04:26:57;40.75;;;21.25;;
53062;SDS011;40529;52.172;10.548;2022-12-07T04:29:24;37.45;;;20.10;;
53062;SDS011;40529;52.172;10.548;2022-12-07T04:31:50;34.47;;;18.52;;
53062;SDS011;40529;52.172;10.548;2022-12-07T04:34:17;36.70;;;20.08;;
53062;SDS011;40529;52.172;10.548;2022-12-07T04:36:43;35.17;;;18.95;;
53062;SDS011;40529;52.172;10.548;2022-12-07T04:41:45;34.22;;;17.70;;
53062;SDS011;40529;52.172;10.548;2022-12-07T04:44:11;34.15;;;17.80;;
53062;SDS011;40529;52.172;10.548;2022-12-07T04:46:39;37.40;;;17.98;;
53062;SDS011;40529;52.172;10.548;2022-12-07T04:49:05;32.35;;;17.83;;
53062;SDS011;40529;52.172;10.548;2022-12-07T04:51:31;29.92;;;16.30;;
53062;SDS011;40529;52.172;10.548;2022-12-07T04:53:58;30.10;;;16.63;;
53062;SDS011;40529;52.172;10.548;2022-12-07T04:56:24;30.60;;;17.35;;
53062;SDS011;40529;52.172;10.548;2022-12-07T04:58:51;28.30;;;15.77;;
53062;SDS011;40529;52.172;10.548;2022-12-07T05:01:17;30.00;;;15.98;;
53062;SDS011;40529;52.172;10.548;2022-12-07T05:03:44;33.10;;;16.48;;
53062;SDS011;40529;52.172;10.548;2022-12-07T05:06:10;28.35;;;15.70;;
53062;SDS011;40529;52.172;10.548;2022-12-07T05:08:36;27.73;;;15.60;;
53062;SDS011;40529;52.172;10.548;2022-12-07T05:11:03;29.83;;;16.02;;
53062;SDS011;40529;52.172;10.548;2022-12-07T05:13:29;27.25;;;14.68;;
53062;SDS011;40529;52.172;10.548;2022-12-07T05:15:55;24.13;;;14.95;;
53062;SDS011;40529;52.172;10.548;2022-12-07T05:18:21;27.00;;;15.32;;
53062;SDS011;40529;52.172;10.548;2022-12-07T05:20:47;24.75;;;14.27;;
53062;SDS011;40529;52.172;10.548;2022-12-07T05:23:14;28.70;;;14.10;;
53062;SDS011;40529;52.172;10.548;2022-12-07T05:25:40;25.10;;;14.43;;
53062;SDS011;40529;52.172;10.548;2022-12-07T05:28:06;25.52;;;14.05;;
53062;SDS011;40529;52.172;10.548;2022-12-07T05:30:32;30.10;;;14.73;;
53062;SDS011;40529;52.172;10.548;2022-12-07T05:32:58;23.17;;;13.23;;
53062;SDS011;40529;52.172;10.548;2022-12-07T05:35:25;27.38;;;14.23;;
53062;SDS011;40529;52.172;10.548;2022-12-07T05:37:51;28.90;;;15.07;;
53062;SDS011;40529;52.172;10.548;2022-12-07T05:40:17;29.45;;;14.75;;
53062;SDS011;40529;52.172;10.548;2022-12-07T05:42:44;28.98;;;14.10;;
53062;SDS011;40529;52.172;10.548;2022-12-07T05:45:10;23.73;;;13.60;;
53062;SDS011;40529;52.172;10.548;2022-12-07T05:47:36;27.23;;;14.05;;
53062;SDS011;40529;52.172;10.548;2022-12-07T05:50:03;26.73;;;14.52;;
53062;SDS011;40529;52.172;10.548;2022-12-07T05:52:29;29.92;;;14.27;;
53062;SDS011;40529;52.172;10.548;2022-12-07T05:54:55;30.67;;;14.38;;
53062;SDS011;40529;52.172;10.548;2022-12-07T05:57:21;25.40;;;14.07;;
53062;SDS011;40529;52.172;10.548;2022-12-07T05:59:47;28.30;;;15.00;;
53062;SDS011;40529;52.172;10.548;2022-12-07T06:02:14;30.13;;;14.15;;
53062;SDS011;40529;52.172;10.548;2022-12-07T06:04:42;29.77;;;15.77;;
53062;SDS011;40529;52.172;10.548;2022-12-07T06:07:08;31.80;;;15.18;;
53062;SDS011;40529;52.172;10.548;2022-12-07T06:09:35;32.70;;;14.38;;
53062;SDS011;40529;52.172;10.548;2022-12-07T06:12:02;29.00;;;14.93;;
53062;SDS011;40529;52.172;10.548;2022-12-07T06:14:49;26.55;;;13.63;;
53062;SDS011;40529;52.172;10.548;2022-12-07T06:17:15;25.50;;;13.07;;
53062;SDS011;40529;52.172;10.548;2022-12-07T06:19:42;28.48;;;14.23;;
53062;SDS011;40529;52.172;10.548;2022-12-07T06:22:10;29.15;;;13.43;;
53062;SDS011;40529;52.172;10.548;2022-12-07T06:24:37;27.98;;;13.25;;
53062;SDS011;40529;52.172;10.548;2022-12-07T06:27:03;28.27;;;13.93;;
53062;SDS011;40529;52.172;10.548;2022-12-07T06:29:30;31.48;;;14.73;;
53062;SDS011;40529;52.172;10.548;2022-12-07T06:31:56;28.02;;;14.40;;
53062;SDS011;40529;52.172;10.548;2022-12-07T06:34:23;29.20;;;14.80;;
53062;SDS011;40529;52.172;10.548;2022-12-07T06:36:49;32.88;;;14.77;;
53062;SDS011;40529;52.172;10.548;2022-12-07T06:39:21;31.85;;;15.20;;
53062;SDS011;40529;52.172;10.548;2022-12-07T06:41:47;35.90;;;15.95;;
53062;SDS011;40529;52.172;10.548;2022-12-07T06:44:13;27.73;;;14.75;;
53062;SDS011;40529;52.172;10.548;2022-12-07T06:46:39;31.23;;;14.52;;
53062;SDS011;40529;52.172;10.548;2022-12-07T06:49:05;30.48;;;13.73;;
53062;SDS011;40529;52.172;10.548;2022-12-07T06:51:32;27.42;;;14.05;;
53062;SDS011;40529;52.172;10.548;2022-12-07T06:54:00;24.85;;;12.50;;
53062;SDS011;40529;52.172;10.548;2022-12-07T06:56:26;24.70;;;11.90;;
53062;SDS011;40529;52.172;10.548;2022-12-07T06:58:53;28.60;;;11.35;;
53062;SDS011;40529;52.172;10.548;2022-12-07T07:01:19;20.98;;;11.25;;
53062;SDS011;40529;52.172;10.548;2022-12-07T07:03:45;23.98;;;11.75;;
53062;SDS011;40529;52.172;10.548;2022-12-07T07:06:12;22.67;;;11.10;;
53062;SDS011;40529;52.172;10.548;2022-12-07T07:08:39;19.50;;;10.68;;
53062;SDS011;40529;52.172;10.548;2022-12-07T07:11:05;22.52;;;9.38;;
53062;SDS011;40529;52.172;10.548;2022-12-07T07:13:31;20.52;;;10.48;;
53062;SDS011;40529;52.172;10.548;2022-12-07T07:15:58;23.40;;;10.65;;
53062;SDS011;40529;52.172;10.548;2022-12-07T07:18:24;22.20;;;11.50;;
53062;SDS011;40529;52.172;10.548;2022-12-07T07:20:51;23.88;;;10.85;;
53062;SDS011;40529;52.172;10.548;2022-12-07T07:23:17;19.45;;;11.10;;
53062;SDS011;40529;52.172;10.548;2022-12-07T07:25:43;25.65;;;11.85;;
53062;SDS011;40529;52.172;10.548;2022-12-07T07:28:10;24.85;;;10.70;;
53062;SDS011;40529;52.172;10.548;2022-12-07T07:30:36;25.33;;;11.65;;
53062;SDS011;40529;52.172;10.548;2022-12-07T07:33:02;21.08;;;10.65;;
53062;SDS011;40529;52.172;10.548;2022-12-07T07:35:29;21.25;;;11.25;;
53062;SDS011;40529;52.172;10.548;2022-12-07T07:37:56;24.13;;;11.18;;
53062;SDS011;40529;52.172;10.548;2022-12-07T07:40:22;21.95;;;10.80;;
53062;SDS011;40529;52.172;10.548;2022-12-07T07:42:51;23.45;;;10.82;;
53062;SDS011;40529;52.172;10.548;2022-12-07T07:45:18;19.10;;;10.07;;
53062;SDS011;40529;52.172;10.548;2022-12-07T07:47:44;25.35;;;10.75;;
53062;SDS011;40529;52.172;10.548;2022-12-07T07:50:10;18.80;;;10.20;;
53062;SDS011;40529;52.172;10.548;2022-12-07T07:52:36;17.00;;;9.68;;
53062;SDS011;40529;52.172;10.548;2022-12-07T07:55:02;23.17;;;9.20;;
53062;SDS011;40529;52.172;10.548;2022-12-07T07:57:28;16.45;;;9.25;;
53062;SDS011;40529;52.172;10.548;2022-12-07T07:59:54;19.55;;;9.75;;
53062;SDS011;40529;52.172;10.548;2022-12-07T08:02:20;18.55;;;9.07;;
53062;SDS011;40529;52.172;10.548;2022-12-07T08:04:47;20.92;;;8.32;;
53062;SDS011;40529;52.172;10.548;2022-12-07T08:07:13;17.95;;;8.65;;
53062;SDS011;40529;52.172;10.548;2022-12-07T08:09:40;16.20;;;8.52;;
53062;SDS011;40529;52.172;10.548;2022-12-07T08:12:06;14.00;;;7.55;;
53062;SDS011;40529;52.172;10.548;2022-12-07T08:14:32;17.40;;;7.82;;
53062;SDS011;40529;52.172;10.548;2022-12-07T08:16:59;18.67;;;7.68;;
53062;SDS011;40529;52.172;10.548;2022-12-07T08:19:25;18.42;;;7.50;;
53062;SDS011;40529;52.172;10.548;2022-12-07T08:21:51;14.10;;;7.38;;
53062;SDS011;40529;52.172;10.548;2022-12-07T08:24:17;12.20;;;7.10;;
53062;SDS011;40529;52.172;10.548;2022-12-07T08:26:43;13.93;;;6.47;;
53062;SDS011;40529;52.172;10.548;2022-12-07T08:29:09;16.17;;;6.53;;
53062;SDS011;40529;52.172;10.548;2022-12-07T08:31:35;15.40;;;6.43;;
53062;SDS011;40529;52.172;10.548;2022-12-07T08:34:01;15.55;;;6.72;;
53062;SDS011;40529;52.172;10.548;2022-12-07T08:36:28;17.92;;;7.28;;
53062;SDS011;40529;52.172;10.548;2022-12-07T08:38:54;21.45;;;7.95;;
53062;SDS011;40529;52.172;10.548;2022-12-07T08:41:20;15.10;;;6.82;;
53062;SDS011;40529;52.172;10.548;2022-12-07T08:43:46;17.33;;;7.50;;
53062;SDS011;40529;52.172;10.548;2022-12-07T08:46:19;13.10;;;6.15;;
53062;SDS011;40529;52.172;10.548;2022-12-07T08:51:16;8.63;;;5.77;;
53062;SDS011;40529;52.172;10.548;2022-12-07T08:53:42;11.93;;;6.32;;
53062;SDS011;40529;52.172;10.548;2022-12-07T08:56:09;10.80;;;5.75;;
53062;SDS011;40529;52.172;10.548;2022-12-07T08:58:35;13.50;;;5.80;;
53062;SDS011;40529;52.172;10.548;2022-12-07T09:01:01;11.40;;;6.32;;
53062;SDS011;40529;52.172;10.548;2022-12-07T09:03:27;12.27;;;5.93;;
53062;SDS011;40529;52.172;10.548;2022-12-07T09:05:53;9.25;;;5.75;;
53062;SDS011;40529;52.172;10.548;2022-12-07T09:08:20;12.80;;;5.30;;
53062;SDS011;40529;52.172;10.548;2022-12-07T09:10:47;9.65;;;5.05;;
53062;SDS011;40529;52.172;10.548;2022-12-07T09:13:13;12.68;;;5.43;;
53062;SDS011;40529;52.172;10.548;2022-12-07T09:15:39;9.70;;;5.40;;
53062;SDS011;40529;52.172;10.548;2022-12-07T09:18:05;8.88;;;5.95;;
53062;SDS011;40529;52.172;10.548;2022-12-07T09:20:31;9.88;;;4.50;;
53062;SDS011;40529;52.172;10.548;2022-12-07T09:22:57;10.35;;;4.63;;
53062;SDS011;40529;52.172;10.548;2022-12-07T09:25:23;9.63;;;4.22;;
53062;SDS011;40529;52.172;10.548;2022-12-07T09:27:54;11.73;;;4.28;;
53062;SDS011;40529;52.172;10.548;2022-12-07T09:30:20;10.23;;;3.97;;
53062;SDS011;40529;52.172;10.548;2022-12-07T09:32:46;11.13;;;4.40;;
53062;SDS011;40529;52.172;10.548;2022-12-07T09:35:13;11.25;;;4.35;;
53062;SDS011;40529;52.172;10.548;2022-12-07T09:37:39;12.27;;;4.30;;
53062;SDS011;40529;52.172;10.548;2022-12-07T09:40:05;10.68;;;4.60;;
53062;SDS011;40529;52.172;10.548;2022-12-07T09:42:32;14.70;;;5.50;;
53062;SDS011;40529;52.172;10.548;2022-12-07T09:45:00;15.27;;;5.72;;
53062;SDS011;40529;52.172;10.548;2022-12-07T09:47:27;14.10;;;6.25;;
53062;SDS011;40529;52.172;10.548;2022-12-07T09:50:00;10.20;;;5.55;;
53062;SDS011;40529;52.172;10.548;2022-12-07T09:52:29;12.32;;;5.45;;
53062;SDS011;40529;52.172;10.548;2022-12-07T09:54:55;10.15;;;4.95;;
53062;SDS011;40529;52.172;10.548;2022-12-07T09:57:25;10.60;;;5.35;;
53062;SDS011;40529;52.172;10.548;2022-12-07T09:59:53;7.95;;;4.97;;
53062;SDS011;40529;52.172;10.548;2022-12-07T10:02:34;10.38;;;6.03;;
53062;SDS011;40529;52.172;10.548;2022-12-07T10:05:01;16.60;;;6.70;;
53062;SDS011;40529;52.172;10.548;2022-12-07T10:07:29;12.32;;;4.95;;
53062;SDS011;40529;52.172;10.548;2022-12-07T10:09:55;8.85;;;5.00;;
53062;SDS011;40529;52.172;10.548;2022-12-07T10:12:21;9.73;;;4.43;;
53062;SDS011;40529;52.172;10.548;2022-12-07T10:17:30;9.50;;;3.92;;
53062;SDS011;40529;52.172;10.548;2022-12-07T10:22:58;8.38;;;3.50;;
53062;SDS011;40529;52.172;10.548;2022-12-07T10:25:26;6.78;;;3.60;;
53062;SDS011;40529;52.172;10.548;2022-12-07T10:27:59;7.03;;;3.53;;
53062;SDS011;40529;52.172;10.548;2022-12-07T10:30:26;8.52;;;3.80;;
53062;SDS011;40529;52.172;10.548;2022-12-07T10:32:52;6.45;;;3.30;;
53062;SDS011;40529;52.172;10.548;2022-12-07T10:35:36;6.18;;;3.50;;
53062;SDS011;40529;52.172;10.548;2022-12-07T10:38:07;4.60;;;3.10;;
53062;SDS011;40529;52.172;10.548;2022-12-07T10:40:41;6.75;;;2.85;;
53062;SDS011;40529;52.172;10.548;2022-12-07T10:51:01;6.55;;;3.38;;
53062;SDS011;40529;52.172;10.548;2022-12-07T11:06:38;4.38;;;2.05;;
53062;SDS011;40529;52.172;10.548;2022-12-07T11:12:24;6.63;;;3.17;;
53062;SDS011;40529;52.172;10.548;2022-12-07T11:17:18;6.38;;;2.20;;
53062;SDS011;40529;52.172;10.548;2022-12-07T11:22:27;3.67;;;1.58;;
53062;SDS011;40529;52.172;10.548;2022-12-07T11:35:11;4.20;;;1.57;;
53062;SDS011;40529;52.172;10.548;2022-12-07T11:37:39;3.63;;;1.38;;
53062;SDS011;40529;52.172;10.548;2022-12-07T11:40:20;2.53;;;1.58;;
53062;SDS011;40529;52.172;10.548;2022-12-07T11:45:37;2.85;;;1.50;;
53062;SDS011;40529;52.172;10.548;2022-12-07T11:48:28;6.03;;;1.77;;
53062;SDS011;40529;52.172;10.548;2022-12-07T11:50:57;3.78;;;1.42;;
53062;SDS011;40529;52.172;10.548;2022-12-07T11:53:33;4.88;;;2.47;;
53062;SDS011;40529;52.172;10.548;2022-12-07T11:56:08;4.80;;;2.25;;
53062;SDS011;40529;52.172;10.548;2022-12-07T12:06:34;3.20;;;2.00;;
53062;SDS011;40529;52.172;10.548;2022-12-07T12:09:05;4.50;;;1.77;;
53062;SDS011;40529;52.172;10.548;2022-12-07T12:19:23;4.70;;;1.85;;
53062;SDS011;40529;52.172;10.548;2022-12-07T12:21:55;3.60;;;1.75;;
53062;SDS011;40529;52.172;10.548;2022-12-07T12:24:23;5.35;;;1.98;;
53062;SDS011;40529;52.172;10.548;2022-12-07T12:26:51;5.40;;;1.85;;
53062;SDS011;40529;52.172;10.548;2022-12-07T12:29:31;5.50;;;2.17;;
53062;SDS011;40529;52.172;10.548;2022-12-07T12:34:40;6.10;;;1.95;;
53062;SDS011;40529;52.172;10.548;2022-12-07T12:42:49;4.88;;;2.08;;
53062;SDS011;40529;52.172;10.548;2022-12-07T12:48:01;5.70;;;1.27;;
53062;SDS011;40529;52.172;10.548;2022-12-07T12:50:28;8.82;;;2.50;;
53062;SDS011;40529;52.172;10.548;2022-12-07T12:55:29;3.40;;;1.13;;
53062;SDS011;40529;52.172;10.548;2022-12-07T12:58:42;2.05;;;0.85;;
53062;SDS011;40529;52.172;10.548;2022-12-07T13:00:43;5.47;;;0.90;;
53062;SDS011;40529;52.172;10.548;2022-12-07T13:03:28;3.80;;;0.93;;
53062;SDS011;40529;52.172;10.548;2022-12-07T13:08:40;2.53;;;0.90;;
53062;SDS011;40529;52.172;10.548;2022-12-07T13:13:52;2.67;;;1.55;;
53062;SDS011;40529;52.172;10.548;2022-12-07T13:18:44;2.45;;;0.98;;
53062;SDS011;40529;52.172;10.548;2022-12-07T13:33:38;6.45;;;1.73;;
53062;SDS011;40529;52.172;10.548;2022-12-07T13:36:04;4.60;;;1.98;;
53062;SDS011;40529;52.172;10.548;2022-12-07T13:38:38;6.88;;;2.08;;
53062;SDS011;40529;52.172;10.548;2022-12-07T13:41:14;5.35;;;2.20;;
53062;SDS011;40529;52.172;10.548;2022-12-07T13:43:45;5.70;;;2.40;;
53062;SDS011;40529;52.172;10.548;2022-12-07T13:46:11;6.93;;;2.00;;
53062;SDS011;40529;52.172;10.548;2022-12-07T13:48:45;7.82;;;2.50;;
53062;SDS011;40529;52.172;10.548;2022-12-07T13:51:45;7.38;;;2.83;;
53062;SDS011;40529;52.172;10.548;2022-12-07T13:54:11;6.28;;;2.47;;
53062;SDS011;40529;52.172;10.548;2022-12-07T13:56:37;7.63;;;2.50;;
53062;SDS011;40529;52.172;10.548;2022-12-07T13:59:05;7.50;;;2.60;;
53062;SDS011;40529;52.172;10.548;2022-12-07T14:01:32;5.28;;;2.47;;
53062;SDS011;40529;52.172;10.548;2022-12-07T14:06:49;7.03;;;2.08;;
53062;SDS011;40529;52.172;10.548;2022-12-07T14:09:17;5.55;;;2.13;;
53062;SDS011;40529;52.172;10.548;2022-12-07T14:11:44;5.45;;;1.88;;
53062;SDS011;40529;52.172;10.548;2022-12-07T14:14:10;9.25;;;2.65;;
53062;SDS011;40529;52.172;10.548;2022-12-07T14:16:39;5.65;;;2.80;;
53062;SDS011;40529;52.172;10.548;2022-12-07T14:22:38;5.97;;;2.85;;
53062;SDS011;40529;52.172;10.548;2022-12-07T14:24:42;10.32;;;2.35;;
53062;SDS011;40529;52.172;10.548;2022-12-07T14:27:21;6.25;;;2.60;;
53062;SDS011;40529;52.172;10.548;2022-12-07T14:29:47;7.78;;;2.50;;
53062;SDS011;40529;52.172;10.548;2022-12-07T14:32:17;10.73;;;3.78;;
53062;SDS011;40529;52.172;10.548;2022-12-07T14:34:54;12.00;;;3.90;;
53062;SDS011;40529;52.172;10.548;2022-12-07T14:37:21;6.22;;;2.78;;
53062;SDS011;40529;52.172;10.548;2022-12-07T14:39:47;11.88;;;3.33;;
53062;SDS011;40529;52.172;10.548;2022-12-07T14:42:13;7.30;;;2.30;;
53062;SDS011;40529;52.172;10.548;2022-12-07T14:44:39;7.50;;;2.35;;
53062;SDS011;40529;52.172;10.548;2022-12-07T14:47:05;5.07;;;1.67;;
53062;SDS011;40529;52.172;10.548;2022-12-07T14:49:31;8.50;;;2.20;;
53062;SDS011;40529;52.172;10.548;2022-12-07T14:51:57;6.05;;;1.83;;
53062;SDS011;40529;52.172;10.548;2022-12-07T14:54:24;12.18;;;2.00;;
53062;SDS011;40529;52.172;10.548;2022-12-07T14:56:52;8.82;;;2.40;;
53062;SDS011;40529;52.172;10.548;2022-12-07T14:59:18;8.02;;;2.10;;
53062;SDS011;40529;52.172;10.548;2022-12-07T15:01:45;8.82;;;2.90;;
53062;SDS011;40529;52.172;10.548;2022-12-07T15:04:11;5.25;;;2.03;;
53062;SDS011;40529;52.172;10.548;2022-12-07T15:06:37;5.30;;;2.50;;
53062;SDS011;40529;52.172;10.548;2022-12-07T15:09:03;8.75;;;1.95;;
53062;SDS011;40529;52.172;10.548;2022-12-07T15:11:29;5.75;;;2.33;;
53062;SDS011;40529;52.172;10.548;2022-12-07T15:13:55;8.85;;;2.08;;
53062;SDS011;40529;52.172;10.548;2022-12-07T15:16:33;4.63;;;1.90;;
53062;SDS011;40529;52.172;10.548;2022-12-07T15:18:59;6.03;;;2.47;;
53062;SDS011;40529;52.172;10.548;2022-12-07T15:21:25;13.07;;;3.13;;
53062;SDS011;40529;52.172;10.548;2022-12-07T15:23:52;10.00;;;2.95;;
53062;SDS011;40529;52.172;10.548;2022-12-07T15:26:18;9.27;;;2.78;;
53062;SDS011;40529;52.172;10.548;2022-12-07T15:28:47;8.65;;;3.35;;
53062;SDS011;40529;52.172;10.548;2022-12-07T15:31:13;7.07;;;3.10;;
53062;SDS011;40529;52.172;10.548;2022-12-07T15:33:39;10.82;;;4.05;;
53062;SDS011;40529;52.172;10.548;2022-12-07T15:36:06;14.38;;;3.63;;
53062;SDS011;40529;52.172;10.548;2022-12-07T15:38:32;9.30;;;3.22;;
53062;SDS011;40529;52.172;10.548;2022-12-07T15:40:58;10.88;;;4.90;;
53062;SDS011;40529;52.172;10.548;2022-12-07T15:43:24;10.52;;;4.85;;
53062;SDS011;40529;52.172;10.548;2022-12-07T15:46:09;11.65;;;5.20;;
53062;SDS011;40529;52.172;10.548;2022-12-07T15:48:35;15.48;;;4.38;;
53062;SDS011;40529;52.172;10.548;2022-12-07T15:51:04;10.30;;;5.20;;
53062;SDS011;40529;52.172;10.548;2022-12-07T15:53:30;11.95;;;5.75;;
53062;SDS011;40529;52.172;10.548;2022-12-07T15:55:57;13.45;;;5.32;;
53062;SDS011;40529;52.172;10.548;2022-12-07T15:58:23;15.80;;;5.43;;
53062;SDS011;40529;52.172;10.548;2022-12-07T16:00:49;13.10;;;4.47;;
53062;SDS011;40529;52.172;10.548;2022-12-07T16:03:15;13.13;;;4.30;;
53062;SDS011;40529;52.172;10.548;2022-12-07T16:05:41;9.45;;;3.83;;
53062;SDS011;40529;52.172;10.548;2022-12-07T16:08:07;11.00;;;5.28;;
53062;SDS011;40529;52.172;10.548;2022-12-07T16:10:33;9.70;;;5.50;;
53062;SDS011;40529;52.172;10.548;2022-12-07T16:12:59;10.45;;;4.47;;
53062;SDS011;40529;52.172;10.548;2022-12-07T16:15:25;10.25;;;3.80;;
53062;SDS011;40529;52.172;10.548;2022-12-07T16:17:52;10.13;;;4.60;;
53062;SDS011;40529;52.172;10.548;2022-12-07T16:20:18;8.48;;;3.30;;
53062;SDS011;40529;52.172;10.548;2022-12-07T16:22:44;9.82;;;3.80;;
53062;SDS011;40529;52.172;10.548;2022-12-07T16:25:10;3.47;;;1.80;;
53062;SDS011;40529;52.172;10.548;2022-12-07T16:27:36;4.10;;;2.00;;
53062;SDS011;40529;52.172;10.548;2022-12-07T16:30:02;2.47;;;1.08;;
53062;SDS011;40529;52.172;10.548;2022-12-07T16:32:29;2.30;;;1.10;;
53062;SDS011;40529;52.172;10.548;2022-12-07T16:34:55;2.88;;;1.30;;
53062;SDS011;40529;52.172;10.548;2022-12-07T16:37:21;5.68;;;1.10;;
53062;SDS011;40529;52.172;10.548;2022-12-07T16:39:47;1.70;;;1.25;;
53062;SDS011;40529;52.172;10.548;2022-12-07T16:42:13;3.30;;;1.42;;